www.winti-wetter.ch
Wetterdaten: aktuell Sonntag, 26.05.2019 07:50
Datum Zeit Temp. A. Feuchte A. Luftdruck Regen Wind Richtung Richtung Sonnenschein T Zeit Regen Solar Windben
26.05.2019 07:50 12.4 C 98 % 1017.3 hPa 0.0 l/m 4.9 km/h SW 216 5 min 0 min 243 W/m 8.0 km/h
26.05.2019 07:45 12.2 C 98 % 1017.3 hPa 0.0 l/m 3.1 km/h SW 216 5 min 0 min 291 W/m 6.4 km/h
26.05.2019 07:40 11.9 C 98 % 1017.4 hPa 0.0 l/m 2.4 km/h SW 217 5 min 0 min 282 W/m 4.8 km/h
26.05.2019 07:35 11.7 C 98 % 1017.4 hPa 0.0 l/m 4.0 km/h SW 216 5 min 0 min 253 W/m 8.0 km/h
26.05.2019 07:30 11.5 C 98 % 1017.5 hPa 0.0 l/m 2.2 km/h SW 217 5 min 0 min 210 W/m 6.4 km/h
26.05.2019 07:25 11.3 C 98 % 1017.4 hPa 0.0 l/m 2.2 km/h SW 216 5 min 0 min 197 W/m 6.4 km/h
26.05.2019 07:20 11.0 C 98 % 1017.3 hPa 0.0 l/m 1.8 km/h SW 216 5 min 0 min 178 W/m 4.8 km/h
26.05.2019 07:15 10.9 C 97 % 1017.3 hPa 0.0 l/m 2.7 km/h SW 216 5 min 0 min 136 W/m 4.8 km/h
26.05.2019 07:10 10.8 C 97 % 1017.2 hPa 0.0 l/m 1.7 km/h SW 216 0 min 0 min 90 W/m 4.8 km/h
26.05.2019 07:05 10.7 C 97 % 1017.2 hPa 0.0 l/m 2.4 km/h SW 216 0 min 0 min 87 W/m 6.4 km/h
26.05.2019 07:00 10.6 C 97 % 1017.2 hPa 0.0 l/m 4.0 km/h SW 216 0 min 0 min 68 W/m 8.0 km/h
26.05.2019 06:55 10.4 C 97 % 1017.1 hPa 0.0 l/m 3.2 km/h SW 216 0 min 0 min 54 W/m 6.4 km/h
26.05.2019 06:50 10.3 C 97 % 1017.1 hPa 0.2 l/m 3.7 km/h SW 217 0 min 0 min 62 W/m 8.0 km/h
26.05.2019 06:45 10.2 C 97 % 1017.1 hPa 0.0 l/m 1.9 km/h SW 216 0 min 0 min 69 W/m 4.8 km/h
26.05.2019 06:40 10.1 C 97 % 1017.1 hPa 0.0 l/m 0.7 km/h SW 216 0 min 0 min 59 W/m 3.2 km/h
26.05.2019 06:35 10.1 C 97 % 1017.1 hPa 0.0 l/m 0.0 km/h SW 216 0 min 0 min 51 W/m 0.0 km/h
26.05.2019 06:30 10.1 C 97 % 1017.1 hPa 0.0 l/m 0.0 km/h SW 216 0 min 0 min 45 W/m 0.0 km/h
26.05.2019 06:25 10.1 C 97 % 1017.2 hPa 0.0 l/m 0.0 km/h SW 216 0 min 0 min 45 W/m 0.0 km/h
26.05.2019 06:20 10.2 C 97 % 1017.2 hPa 0.0 l/m 0.0 km/h SW 216 0 min 0 min 38 W/m 0.0 km/h
26.05.2019 06:15 10.2 C 96 % 1017.2 hPa 0.0 l/m 0.0 km/h SW 216 0 min 0 min 30 W/m 0.0 km/h
26.05.2019 06:10 10.3 C 96 % 1017.2 hPa 0.0 l/m 0.1 km/h SW 216 0 min 0 min 26 W/m 3.2 km/h
26.05.2019 06:05 10.4 C 97 % 1017.1 hPa 0.0 l/m 1.4 km/h SW 216 0 min 0 min 20 W/m 4.8 km/h
26.05.2019 06:00 10.4 C 97 % 1017.1 hPa 0.0 l/m 0.0 km/h SW 216 0 min 0 min 17 W/m 0.0 km/h
26.05.2019 05:55 10.5 C 97 % 1017.0 hPa 0.0 l/m 0.0 km/h SW 216 0 min 0 min 14 W/m 0.0 km/h
26.05.2019 05:50 10.6 C 97 % 1017.0 hPa 0.0 l/m 0.0 km/h SW 216 0 min 0 min 12 W/m 0.0 km/h
26.05.2019 05:45 10.7 C 97 % 1017.0 hPa 0.0 l/m 0.0 km/h SW 216 0 min 0 min 10 W/m 0.0 km/h
26.05.2019 05:40 10.7 C 97 % 1016.9 hPa 0.0 l/m 0.0 km/h N 0 0 min 0 min 7 W/m 0.0 km/h
26.05.2019 05:35 10.7 C 97 % 1016.9 hPa 0.0 l/m 0.0 km/h N 0 0 min 0 min 5 W/m 0.0 km/h
26.05.2019 05:30 10.7 C 97 % 1016.9 hPa 0.0 l/m 1.6 km/h SW 225 0 min 0 min 1 W/m 3.2 km/h
26.05.2019 05:25 10.7 C 97 % 1016.9 hPa 0.0 l/m 1.2 km/h SW 216 0 min 0 min 0 W/m 3.2 km/h
26.05.2019 05:20 10.7 C 97 % 1017.0 hPa 0.0 l/m 1.7 km/h SW 216 0 min 0 min 0 W/m 4.8 km/h
26.05.2019 05:15 10.7 C 97 % 1017.0 hPa 0.0 l/m 1.5 km/h SW 216 0 min 0 min 0 W/m 3.2 km/h
26.05.2019 05:10 10.7 C 97 % 1017.0 hPa 0.0 l/m 1.2 km/h SW 216 0 min 0 min 0 W/m 3.2 km/h
26.05.2019 05:05 10.8 C 97 % 1017.1 hPa 0.0 l/m 0.1 km/h SW 216 0 min 0 min 0 W/m 1.6 km/h
26.05.2019 05:00 10.8 C 97 % 1017.1 hPa 0.0 l/m 1.4 km/h SW 216 0 min 0 min 0 W/m 4.8 km/h
26.05.2019 04:55 10.9 C 96 % 1017.0 hPa 0.0 l/m 0.0 km/h SW 217 0 min 0 min 0 W/m 0.0 km/h
26.05.2019 04:50 10.9 C 96 % 1017.0 hPa 0.0 l/m 0.0 km/h SW 217 0 min 0 min 0 W/m 0.0 km/h
26.05.2019 04:45 11.0 C 96 % 1017.0 hPa 0.0 l/m 0.0 km/h SW 216 0 min 0 min 0 W/m 0.0 km/h
26.05.2019 04:40 11.1 C 97 % 1016.9 hPa 0.0 l/m 0.0 km/h SW 216 0 min 0 min 0 W/m 0.0 km/h
26.05.2019 04:35 11.2 C 97 % 1016.9 hPa 0.0 l/m 0.0 km/h SW 216 0 min 0 min 0 W/m 1.6 km/h
26.05.2019 04:30 11.2 C 97 % 1017.0 hPa 0.0 l/m 1.0 km/h SW 216 0 min 0 min 0 W/m 3.2 km/h
26.05.2019 04:25 11.3 C 97 % 1017.0 hPa 0.0 l/m 0.0 km/h SW 217 0 min 0 min 0 W/m 0.0 km/h
26.05.2019 04:20 11.3 C 97 % 1017.0 hPa 0.0 l/m 0.0 km/h SW 217 0 min 0 min 0 W/m 0.0 km/h
26.05.2019 04:15 11.3 C 97 % 1017.0 hPa 0.0 l/m 1.4 km/h SW 216 0 min 0 min 0 W/m 3.2 km/h
26.05.2019 04:10 11.4 C 97 % 1017.0 hPa 0.0 l/m 2.4 km/h SW 216 0 min 0 min 0 W/m 6.4 km/h
26.05.2019 04:05 11.4 C 97 % 1017.0 hPa 0.0 l/m 2.6 km/h SW 216 0 min 0 min 0 W/m 6.4 km/h
26.05.2019 04:00 11.4 C 97 % 1016.9 hPa 0.0 l/m 1.7 km/h SW 216 0 min 0 min 0 W/m 4.8 km/h
26.05.2019 03:55 11.4 C 97 % 1016.9 hPa 0.0 l/m 2.2 km/h SW 216 0 min 0 min 0 W/m 6.4 km/h
26.05.2019 03:50 11.4 C 97 % 1016.9 hPa 0.0 l/m 3.2 km/h SW 217 0 min 0 min 0 W/m 9.7 km/h
26.05.2019 03:45 11.4 C 97 % 1017.0 hPa 0.0 l/m 4.8 km/h SW 216 0 min 0 min 0 W/m 9.7 km/h
26.05.2019 03:40 11.4 C 97 % 1017.0 hPa 0.0 l/m 0.7 km/h SW 216 0 min 0 min 0 W/m 4.8 km/h
26.05.2019 03:35 11.4 C 97 % 1016.9 hPa 0.0 l/m 0.0 km/h SW 216 0 min 0 min 0 W/m 0.0 km/h
26.05.2019 03:30 11.4 C 97 % 1017.0 hPa 0.0 l/m 0.9 km/h SW 216 0 min 0 min 0 W/m 3.2 km/h
26.05.2019 03:25 11.4 C 97 % 1016.9 hPa 0.0 l/m 2.2 km/h SW 216 0 min 0 min 0 W/m 4.8 km/h
26.05.2019 03:20 11.5 C 97 % 1016.9 hPa 0.0 l/m 1.6 km/h SW 216 0 min 0 min 0 W/m 4.8 km/h
26.05.2019 03:15 11.5 C 97 % 1016.9 hPa 0.0 l/m 1.4 km/h SW 216 0 min 0 min 0 W/m 4.8 km/h
26.05.2019 03:10 11.5 C 97 % 1016.9 hPa 0.0 l/m 1.9 km/h SW 217 0 min 0 min 0 W/m 4.8 km/h
26.05.2019 03:05 11.4 C 97 % 1016.9 hPa 0.0 l/m 2.5 km/h SW 216 0 min 0 min 0 W/m 6.4 km/h
26.05.2019 03:00 11.4 C 97 % 1017.0 hPa 0.0 l/m 1.3 km/h SW 216 0 min 0 min 0 W/m 3.2 km/h
26.05.2019 02:55 11.4 C 97 % 1017.1 hPa 0.0 l/m 1.0 km/h SW 216 0 min 0 min 0 W/m 3.2 km/h
26.05.2019 02:50 11.4 C 96 % 1017.0 hPa 0.0 l/m 2.5 km/h SW 216 0 min 0 min 0 W/m 4.8 km/h
26.05.2019 02:45 11.4 C 96 % 1017.2 hPa 0.0 l/m 1.9 km/h SW 216 0 min 0 min 0 W/m 3.2 km/h
26.05.2019 02:40 11.4 C 96 % 1017.2 hPa 0.0 l/m 0.5 km/h SW 217 0 min 0 min 0 W/m 3.2 km/h
26.05.2019 02:35 11.5 C 96 % 1017.3 hPa 0.0 l/m 0.5 km/h SW 216 0 min 0 min 0 W/m 3.2 km/h
26.05.2019 02:30 11.5 C 96 % 1017.3 hPa 0.0 l/m 0.3 km/h SW 216 0 min 0 min 0 W/m 3.2 km/h
26.05.2019 02:25 11.5 C 96 % 1017.4 hPa 0.0 l/m 0.0 km/h SW 216 0 min 0 min 0 W/m 0.0 km/h
26.05.2019 02:20 11.6 C 96 % 1017.5 hPa 0.0 l/m 0.0 km/h SW 216 0 min 0 min 0 W/m 0.0 km/h
26.05.2019 02:15 11.6 C 96 % 1017.5 hPa 0.0 l/m 0.4 km/h SW 216 0 min 0 min 0 W/m 1.6 km/h
26.05.2019 02:10 11.6 C 96 % 1017.5 hPa 0.0 l/m 0.0 km/h SW 216 0 min 0 min 0 W/m 0.0 km/h
26.05.2019 02:05 11.7 C 96 % 1017.5 hPa 0.0 l/m 0.0 km/h SW 216 0 min 0 min 0 W/m 0.0 km/h
26.05.2019 02:00 11.7 C 96 % 1017.5 hPa 0.0 l/m 0.0 km/h SW 216 0 min 0 min 0 W/m 0.0 km/h
26.05.2019 01:55 11.7 C 96 % 1017.4 hPa 0.0 l/m 0.0 km/h SW 216 0 min 0 min 0 W/m 0.0 km/h
26.05.2019 01:50 11.8 C 96 % 1017.5 hPa 0.0 l/m 0.0 km/h SW 216 0 min 0 min 0 W/m 0.0 km/h
26.05.2019 01:45 11.8 C 96 % 1017.5 hPa 0.0 l/m 0.7 km/h SW 216 0 min 0 min 0 W/m 4.8 km/h
26.05.2019 01:40 11.8 C 96 % 1017.5 hPa 0.0 l/m 1.7 km/h SW 217 0 min 0 min 0 W/m 4.8 km/h
26.05.2019 01:35 11.8 C 96 % 1017.5 hPa 0.0 l/m 1.0 km/h SW 216 0 min 0 min 0 W/m 4.8 km/h
26.05.2019 01:30 11.7 C 96 % 1017.5 hPa 0.0 l/m 2.5 km/h SW 216 0 min 0 min 0 W/m 4.8 km/h
26.05.2019 01:25 11.7 C 96 % 1017.5 hPa 0.0 l/m 2.1 km/h SW 216 0 min 0 min 0 W/m 4.8 km/h
26.05.2019 01:20 11.7 C 96 % 1017.5 hPa 0.0 l/m 1.4 km/h SW 217 0 min 0 min 0 W/m 3.2 km/h
26.05.2019 01:15 11.7 C 96 % 1017.4 hPa 0.0 l/m 0.8 km/h SW 216 0 min 0 min 0 W/m 3.2 km/h
26.05.2019 01:10 11.7 C 96 % 1017.4 hPa 0.0 l/m 0.4 km/h SW 216 0 min 0 min 0 W/m 3.2 km/h
26.05.2019 01:05 11.7 C 96 % 1017.5 hPa 0.0 l/m 0.0 km/h SW 217 0 min 0 min 0 W/m 0.0 km/h
26.05.2019 01:00 11.7 C 96 % 1017.5 hPa 0.0 l/m 0.1 km/h SW 216 0 min 0 min 0 W/m 1.6 km/h
26.05.2019 00:55 11.8 C 96 % 1017.5 hPa 0.0 l/m 1.9 km/h SW 216 0 min 0 min 0 W/m 3.2 km/h
26.05.2019 00:50 11.8 C 96 % 1017.6 hPa 0.0 l/m 0.6 km/h SW 216 0 min 0 min 0 W/m 3.2 km/h
26.05.2019 00:45 11.8 C 96 % 1017.6 hPa 0.0 l/m 0.0 km/h SW 216 0 min 0 min 0 W/m 1.6 km/h
26.05.2019 00:40 11.9 C 96 % 1017.5 hPa 0.0 l/m 0.1 km/h SW 217 0 min 0 min 0 W/m 1.6 km/h
26.05.2019 00:35 11.9 C 96 % 1017.6 hPa 0.0 l/m 0.9 km/h SW 216 0 min 0 min 0 W/m 4.8 km/h
26.05.2019 00:30 12.0 C 96 % 1017.6 hPa 0.0 l/m 0.0 km/h SW 216 0 min 0 min 0 W/m 0.0 km/h
26.05.2019 00:25 12.1 C 96 % 1017.6 hPa 0.0 l/m 0.1 km/h SW 216 0 min 0 min 0 W/m 1.6 km/h
26.05.2019 00:20 12.1 C 96 % 1017.5 hPa 0.0 l/m 1.0 km/h SW 216 0 min 0 min 0 W/m 4.8 km/h
26.05.2019 00:15 12.2 C 96 % 1017.5 hPa 0.0 l/m 0.0 km/h SW 216 0 min 0 min 0 W/m 0.0 km/h
26.05.2019 00:10 12.2 C 96 % 1017.4 hPa 0.0 l/m 0.0 km/h SW 216 0 min 0 min 0 W/m 0.0 km/h
26.05.2019 00:05 12.2 C 96 % 1017.4 hPa 0.0 l/m 1.6 km/h SW 217 0 min 0 min 0 W/m 4.8 km/h
26.05.2019 00:00 12.3 C 96 % 1017.4 hPa 0.0 l/m 2.1 km/h SW 216 0 min 0 min 0 W/m 4.8 km/h
25.05.2019 23:55 12.3 C 96 % 1017.5 hPa 0.0 l/m 3.6 km/h SW 216 0 min 0 min 0 W/m 6.4 km/h
25.05.2019 23:50 12.3 C 96 % 1017.4 hPa 0.0 l/m 4.6 km/h SW 217 0 min 0 min 0 W/m 8.0 km/h
25.05.2019 23:45 12.4 C 96 % 1017.4 hPa 0.0 l/m 4.1 km/h SW 216 0 min 0 min 0 W/m 8.0 km/h
25.05.2019 23:40 12.4 C 96 % 1017.3 hPa 0.0 l/m 2.9 km/h SW 216 0 min 0 min 0 W/m 6.4 km/h
25.05.2019 23:35 12.5 C 96 % 1017.3 hPa 0.0 l/m 3.2 km/h SW 216 0 min 0 min 0 W/m 6.4 km/h
25.05.2019 23:30 12.6 C 96 % 1017.2 hPa 0.0 l/m 3.7 km/h SW 216 0 min 0 min 0 W/m 8.0 km/h
25.05.2019 23:25 12.6 C 96 % 1017.3 hPa 0.0 l/m 2.8 km/h SW 216 0 min 0 min 0 W/m 8.0 km/h
25.05.2019 23:20 12.6 C 96 % 1017.3 hPa 0.0 l/m 1.5 km/h SW 216 0 min 0 min 0 W/m 4.8 km/h
25.05.2019 23:15 12.7 C 96 % 1017.3 hPa 0.0 l/m 2.8 km/h SW 216 0 min 0 min 0 W/m 6.4 km/h
25.05.2019 23:10 12.7 C 96 % 1017.3 hPa 0.0 l/m 3.9 km/h SW 216 0 min 0 min 0 W/m 8.0 km/h
25.05.2019 23:05 12.8 C 96 % 1017.3 hPa 0.0 l/m 5.1 km/h S-SW 202 0 min 0 min 0 W/m 9.7 km/h
25.05.2019 23:00 12.8 C 96 % 1017.4 hPa 0.0 l/m 5.0 km/h S 188 0 min 0 min 0 W/m 9.7 km/h
25.05.2019 22:55 12.8 C 96 % 1017.4 hPa 0.0 l/m 2.5 km/h S 188 0 min 0 min 0 W/m 6.4 km/h
25.05.2019 22:50 12.8 C 96 % 1017.4 hPa 0.0 l/m 2.3 km/h S 188 0 min 0 min 0 W/m 6.4 km/h
25.05.2019 22:45 12.9 C 96 % 1017.4 hPa 0.0 l/m 2.5 km/h S 188 0 min 0 min 0 W/m 4.8 km/h
25.05.2019 22:40 13.0 C 96 % 1017.4 hPa 0.0 l/m 0.0 km/h S 188 0 min 0 min 0 W/m 0.0 km/h
25.05.2019 22:35 13.1 C 96 % 1017.4 hPa 0.0 l/m 0.0 km/h S 188 0 min 0 min 0 W/m 0.0 km/h
25.05.2019 22:30 13.1 C 96 % 1017.5 hPa 0.0 l/m 0.0 km/h S 188 0 min 0 min 0 W/m 0.0 km/h
25.05.2019 22:25 13.1 C 96 % 1017.5 hPa 0.0 l/m 0.0 km/h S 188 0 min 0 min 0 W/m 0.0 km/h
25.05.2019 22:20 13.1 C 96 % 1017.5 hPa 0.0 l/m 0.0 km/h S 188 0 min 0 min 0 W/m 0.0 km/h
25.05.2019 22:15 13.2 C 96 % 1017.5 hPa 0.0 l/m 0.0 km/h S 188 0 min 0 min 0 W/m 0.0 km/h
25.05.2019 22:10 13.2 C 96 % 1017.5 hPa 0.0 l/m 0.0 km/h S 188 0 min 0 min 0 W/m 0.0 km/h
25.05.2019 22:05 13.2 C 96 % 1017.5 hPa 0.0 l/m 0.0 km/h S 188 0 min 0 min 0 W/m 0.0 km/h
25.05.2019 22:00 13.3 C 95 % 1017.5 hPa 0.0 l/m 0.0 km/h S 188 0 min 0 min 0 W/m 0.0 km/h
25.05.2019 21:55 13.4 C 95 % 1017.4 hPa 0.0 l/m 0.0 km/h S 188 0 min 0 min 0 W/m 0.0 km/h
25.05.2019 21:50 13.5 C 96 % 1017.4 hPa 0.0 l/m 0.0 km/h S 188 0 min 0 min 0 W/m 0.0 km/h
25.05.2019 21:45 13.6 C 95 % 1017.2 hPa 0.0 l/m 0.0 km/h S 188 0 min 0 min 0 W/m 0.0 km/h
25.05.2019 21:40 13.6 C 95 % 1017.2 hPa 0.0 l/m 0.0 km/h S 188 0 min 0 min 0 W/m 0.0 km/h
25.05.2019 21:35 13.7 C 95 % 1017.2 hPa 0.0 l/m 0.0 km/h S 188 0 min 0 min 0 W/m 0.0 km/h
25.05.2019 21:30 13.7 C 95 % 1017.1 hPa 0.0 l/m 0.0 km/h S 188 0 min 0 min 0 W/m 0.0 km/h
25.05.2019 21:25 13.8 C 95 % 1017.1 hPa 0.0 l/m 0.0 km/h S 188 0 min 0 min 0 W/m 0.0 km/h
25.05.2019 21:20 13.8 C 95 % 1017.0 hPa 0.0 l/m 0.0 km/h S 188 0 min 0 min 0 W/m 0.0 km/h
25.05.2019 21:15 13.8 C 94 % 1017.0 hPa 0.0 l/m 0.0 km/h S 188 0 min 0 min 0 W/m 0.0 km/h
25.05.2019 21:10 13.9 C 94 % 1017.0 hPa 0.0 l/m 0.0 km/h S 188 0 min 0 min 0 W/m 0.0 km/h
25.05.2019 21:05 13.9 C 94 % 1017.0 hPa 0.0 l/m 0.0 km/h S 188 0 min 0 min 0 W/m 0.0 km/h
25.05.2019 21:00 13.9 C 94 % 1016.9 hPa 0.0 l/m 0.0 km/h S 188 0 min 0 min 2 W/m 0.0 km/h
25.05.2019 20:55 13.9 C 94 % 1016.9 hPa 0.0 l/m 0.0 km/h S 188 0 min 0 min 5 W/m 0.0 km/h
25.05.2019 20:50 13.9 C 94 % 1016.9 hPa 0.0 l/m 0.0 km/h S 188 0 min 0 min 7 W/m 0.0 km/h
25.05.2019 20:45 13.9 C 94 % 1016.9 hPa 0.0 l/m 0.0 km/h S 188 0 min 0 min 9 W/m 0.0 km/h
25.05.2019 20:40 14.0 C 93 % 1016.9 hPa 0.0 l/m 0.0 km/h S 188 0 min 0 min 11 W/m 0.0 km/h
25.05.2019 20:35 14.1 C 93 % 1016.8 hPa 0.0 l/m 0.0 km/h S 188 0 min 0 min 10 W/m 1.6 km/h
25.05.2019 20:30 14.2 C 93 % 1016.8 hPa 0.0 l/m 0.7 km/h S 188 0 min 0 min 9 W/m 3.2 km/h
25.05.2019 20:25 14.2 C 93 % 1016.8 hPa 0.0 l/m 0.0 km/h S 188 0 min 0 min 9 W/m 1.6 km/h
25.05.2019 20:20 14.2 C 93 % 1016.7 hPa 0.0 l/m 0.0 km/h S 188 0 min 0 min 10 W/m 0.0 km/h
25.05.2019 20:15 14.2 C 93 % 1016.7 hPa 0.0 l/m 0.9 km/h S 188 0 min 0 min 13 W/m 3.2 km/h
25.05.2019 20:10 14.2 C 92 % 1016.6 hPa 0.0 l/m 1.9 km/h S 188 0 min 0 min 18 W/m 3.2 km/h
25.05.2019 20:05 14.3 C 92 % 1016.6 hPa 0.0 l/m 2.6 km/h S 188 0 min 0 min 23 W/m 4.8 km/h
25.05.2019 20:00 14.4 C 91 % 1016.5 hPa 0.0 l/m 3.0 km/h S 188 0 min 0 min 24 W/m 4.8 km/h
25.05.2019 19:55 14.6 C 91 % 1016.3 hPa 0.0 l/m 1.8 km/h S 188 0 min 0 min 20 W/m 3.2 km/h
25.05.2019 19:50 14.6 C 89 % 1016.2 hPa 0.0 l/m 5.2 km/h S 188 0 min 0 min 19 W/m 12.9 km/h
25.05.2019 19:45 14.7 C 89 % 1016.1 hPa 0.0 l/m 6.4 km/h S 189 0 min 0 min 20 W/m 11.3 km/h
25.05.2019 19:40 14.7 C 89 % 1016.1 hPa 0.0 l/m 5.8 km/h S-SW 211 0 min 0 min 24 W/m 9.7 km/h
25.05.2019 19:35 14.7 C 89 % 1016.1 hPa 0.0 l/m 3.2 km/h S-SW 211 0 min 0 min 29 W/m 8.0 km/h
25.05.2019 19:30 14.7 C 89 % 1016.1 hPa 0.0 l/m 3.4 km/h S-SW 213 0 min 0 min 34 W/m 11.3 km/h
25.05.2019 19:25 14.7 C 89 % 1016.0 hPa 0.0 l/m 3.9 km/h S-SW 192 0 min 0 min 38 W/m 8.0 km/h
25.05.2019 19:20 14.7 C 89 % 1016.1 hPa 0.0 l/m 1.6 km/h S-SW 192 0 min 0 min 36 W/m 3.2 km/h
25.05.2019 19:15 14.7 C 88 % 1016.1 hPa 0.0 l/m 2.7 km/h S-SW 192 0 min 0 min 40 W/m 4.8 km/h
25.05.2019 19:10 14.7 C 88 % 1016.1 hPa 0.0 l/m 2.1 km/h S-SW 192 0 min 0 min 55 W/m 4.8 km/h
25.05.2019 19:05 14.8 C 88 % 1016.1 hPa 0.0 l/m 2.2 km/h S-SW 192 0 min 0 min 82 W/m 4.8 km/h
25.05.2019 19:00 14.8 C 88 % 1015.9 hPa 0.0 l/m 1.3 km/h S-SW 192 0 min 0 min 94 W/m 4.8 km/h
25.05.2019 18:55 14.8 C 87 % 1016.0 hPa 0.0 l/m 2.5 km/h S-SW 192 0 min 0 min 110 W/m 6.4 km/h
25.05.2019 18:50 14.9 C 87 % 1015.9 hPa 0.0 l/m 1.9 km/h S-SW 192 0 min 0 min 186 W/m 4.8 km/h
25.05.2019 18:45 14.9 C 88 % 1015.9 hPa 0.0 l/m 1.9 km/h S-SW 192 5 min 0 min 255 W/m 4.8 km/h
25.05.2019 18:40 15.0 C 88 % 1015.9 hPa 0.0 l/m 1.3 km/h S-SW 192 0 min 0 min 204 W/m 4.8 km/h
25.05.2019 18:35 15.0 C 89 % 1015.8 hPa 0.0 l/m 2.2 km/h S-SW 192 5 min 0 min 244 W/m 6.4 km/h
25.05.2019 18:30 14.9 C 88 % 1015.8 hPa 0.0 l/m 1.9 km/h S-SW 192 5 min 0 min 228 W/m 4.8 km/h
25.05.2019 18:25 14.9 C 90 % 1015.8 hPa 0.0 l/m 1.2 km/h S-SW 192 0 min 0 min 191 W/m 4.8 km/h
25.05.2019 18:20 14.9 C 90 % 1015.8 hPa 0.0 l/m 2.5 km/h S-SW 192 0 min 0 min 206 W/m 4.8 km/h
25.05.2019 18:15 15.1 C 90 % 1015.7 hPa 0.0 l/m 2.4 km/h S-SW 192 5 min 0 min 334 W/m 6.4 km/h
25.05.2019 18:10 15.0 C 93 % 1015.6 hPa 0.0 l/m 1.4 km/h S-SW 192 5 min 0 min 428 W/m 4.8 km/h
25.05.2019 18:05 14.7 C 93 % 1015.6 hPa 0.0 l/m 2.1 km/h S-SW 192 5 min 0 min 384 W/m 6.4 km/h
25.05.2019 18:00 14.4 C 93 % 1015.5 hPa 0.0 l/m 2.4 km/h S-SW 192 5 min 0 min 287 W/m 6.4 km/h
25.05.2019 17:55 14.2 C 93 % 1015.5 hPa 0.0 l/m 3.1 km/h S-SW 192 0 min 0 min 264 W/m 8.0 km/h
25.05.2019 17:50 14.0 C 93 % 1015.5 hPa 0.0 l/m 3.7 km/h S 190 0 min 0 min 259 W/m 8.0 km/h
25.05.2019 17:45 14.1 C 94 % 1015.5 hPa 0.0 l/m 4.0 km/h S 191 0 min 0 min 259 W/m 6.4 km/h
25.05.2019 17:40 14.0 C 94 % 1015.6 hPa 0.0 l/m 2.0 km/h S 190 0 min 0 min 246 W/m 4.8 km/h
25.05.2019 17:35 14.1 C 96 % 1015.6 hPa 0.0 l/m 2.0 km/h S 190 0 min 0 min 240 W/m 4.8 km/h
25.05.2019 17:30 13.7 C 95 % 1015.6 hPa 0.0 l/m 0.9 km/h S 180 0 min 0 min 213 W/m 4.8 km/h
25.05.2019 17:25 13.4 C 95 % 1015.7 hPa 0.0 l/m 0.8 km/h S 180 0 min 5 min 172 W/m 4.8 km/h
25.05.2019 17:20 13.2 C 94 % 1015.6 hPa 0.2 l/m 0.8 km/h S 180 0 min 5 min 131 W/m 3.2 km/h
25.05.2019 17:15 13.1 C 93 % 1015.7 hPa 0.2 l/m 0.3 km/h S 180 0 min 5 min 108 W/m 3.2 km/h
25.05.2019 17:10 13.1 C 93 % 1015.8 hPa 0.2 l/m 2.1 km/h S 180 0 min 5 min 80 W/m 6.4 km/h
25.05.2019 17:05 13.3 C 93 % 1015.7 hPa 0.2 l/m 1.4 km/h S 180 0 min 5 min 54 W/m 6.4 km/h
25.05.2019 17:00 13.2 C 92 % 1015.8 hPa 0.4 l/m 5.7 km/h S 183 0 min 5 min 39 W/m 9.7 km/h
25.05.2019 16:55 13.4 C 91 % 1015.9 hPa 0.4 l/m 5.1 km/h S 185 0 min 5 min 30 W/m 8.0 km/h
25.05.2019 16:50 13.5 C 91 % 1016.0 hPa 0.2 l/m 4.1 km/h S 182 0 min 5 min 23 W/m 11.3 km/h
25.05.2019 16:45 13.6 C 91 % 1016.0 hPa 0.2 l/m 3.2 km/h W-SW 245 0 min 5 min 19 W/m 6.4 km/h
25.05.2019 16:40 13.6 C 90 % 1016.0 hPa 0.4 l/m 3.9 km/h W-SW 249 0 min 5 min 18 W/m 8.0 km/h
25.05.2019 16:35 13.7 C 89 % 1016.1 hPa 0.2 l/m 3.4 km/h W-SW 252 0 min 5 min 18 W/m 6.4 km/h
25.05.2019 16:30 13.9 C 88 % 1016.1 hPa 0.0 l/m 6.2 km/h W-SW 254 0 min 5 min 18 W/m 14.5 km/h
25.05.2019 16:25 14.1 C 88 % 1016.0 hPa 0.0 l/m 4.9 km/h W-SW 246 0 min 5 min 19 W/m 11.3 km/h
25.05.2019 16:20 14.2 C 87 % 1015.9 hPa 0.2 l/m 4.9 km/h W-SW 254 0 min 0 min 19 W/m 8.0 km/h
25.05.2019 16:15 14.4 C 85 % 1015.8 hPa 0.0 l/m 5.0 km/h W-SW 254 0 min 5 min 20 W/m 9.7 km/h
25.05.2019 16:10 14.7 C 84 % 1015.8 hPa 0.0 l/m 4.3 km/h W 262 0 min 5 min 22 W/m 9.7 km/h
25.05.2019 16:05 15.1 C 82 % 1015.7 hPa 0.2 l/m 4.0 km/h W 265 0 min 5 min 24 W/m 9.7 km/h
25.05.2019 16:00 15.5 C 79 % 1015.6 hPa 0.6 l/m 2.4 km/h W-NW 296 0 min 5 min 26 W/m 9.7 km/h
25.05.2019 15:55 16.3 C 72 % 1015.6 hPa 0.2 l/m 11.4 km/h N-NW 340 0 min 5 min 34 W/m 19.3 km/h
25.05.2019 15:50 16.8 C 67 % 1015.3 hPa 0.0 l/m 10.8 km/h N-NW 328 0 min 0 min 46 W/m 20.9 km/h
25.05.2019 15:45 17.2 C 64 % 1015.1 hPa 0.0 l/m 11.0 km/h W-NW 297 0 min 0 min 59 W/m 20.9 km/h
25.05.2019 15:40 17.4 C 62 % 1015.1 hPa 0.0 l/m 12.3 km/h NW 311 0 min 0 min 64 W/m 19.3 km/h
25.05.2019 15:35 17.8 C 61 % 1015.0 hPa 0.0 l/m 14.2 km/h N 351 0 min 0 min 81 W/m 22.5 km/h
25.05.2019 15:30 18.1 C 63 % 1015.1 hPa 0.0 l/m 8.7 km/h N-NW 336 0 min 0 min 99 W/m 14.5 km/h
25.05.2019 15:25 18.3 C 63 % 1014.9 hPa 0.0 l/m 8.2 km/h N-NO 21 0 min 0 min 118 W/m 14.5 km/h
25.05.2019 15:20 18.8 C 62 % 1014.9 hPa 0.0 l/m 14.1 km/h N 11 0 min 0 min 138 W/m 35.4 km/h
25.05.2019 15:15 19.4 C 58 % 1014.7 hPa 0.0 l/m 10.9 km/h NW 325 0 min 0 min 208 W/m 24.1 km/h
25.05.2019 15:10 20.2 C 67 % 1014.8 hPa 0.0 l/m 5.5 km/h S-SW 209 0 min 0 min 438 W/m 11.3 km/h
25.05.2019 15:05 20.4 C 63 % 1014.7 hPa 0.0 l/m 8.9 km/h S 171 5 min 0 min 575 W/m 16.1 km/h
25.05.2019 15:00 20.4 C 67 % 1014.7 hPa 0.0 l/m 8.1 km/h SO 132 5 min 0 min 982 W/m 14.5 km/h
25.05.2019 14:55 20.0 C 66 % 1014.7 hPa 0.0 l/m 10.2 km/h SO 124 5 min 0 min 864 W/m 17.7 km/h
25.05.2019 14:50 20.4 C 64 % 1014.8 hPa 0.0 l/m 10.5 km/h S 178 5 min 0 min 864 W/m 17.7 km/h
25.05.2019 14:45 20.7 C 65 % 1014.8 hPa 0.0 l/m 9.6 km/h S-SO 158 5 min 0 min 1043 W/m 16.1 km/h
25.05.2019 14:40 20.4 C 65 % 1014.8 hPa 0.0 l/m 5.7 km/h S-SW 206 5 min 0 min 1012 W/m 16.1 km/h
25.05.2019 14:35 20.5 C 69 % 1014.8 hPa 0.0 l/m 7.7 km/h SW 219 5 min 0 min 962 W/m 12.9 km/h
25.05.2019 14:30 19.8 C 66 % 1014.8 hPa 0.0 l/m 7.2 km/h S 185 5 min 0 min 867 W/m 12.9 km/h
25.05.2019 14:25 19.4 C 68 % 1014.9 hPa 0.0 l/m 4.9 km/h S 181 5 min 0 min 573 W/m 12.9 km/h
25.05.2019 14:20 19.2 C 69 % 1014.9 hPa 0.0 l/m 6.8 km/h S 180 0 min 0 min 380 W/m 12.9 km/h
25.05.2019 14:15 19.6 C 67 % 1015.0 hPa 0.0 l/m 7.9 km/h S-SW 211 5 min 0 min 515 W/m 14.5 km/h
25.05.2019 14:10 20.2 C 67 % 1015.0 hPa 0.0 l/m 6.8 km/h S-SW 202 5 min 0 min 872 W/m 12.9 km/h
25.05.2019 14:05 19.7 C 71 % 1014.9 hPa 0.0 l/m 7.7 km/h SW 217 5 min 0 min 767 W/m 12.9 km/h
25.05.2019 14:00 19.1 C 73 % 1015.0 hPa 0.0 l/m 7.7 km/h S-SW 208 5 min 0 min 864 W/m 12.9 km/h
25.05.2019 13:55 18.4 C 74 % 1015.1 hPa 0.0 l/m 7.5 km/h W-SW 240 5 min 0 min 679 W/m 12.9 km/h
25.05.2019 13:50 18.1 C 74 % 1015.1 hPa 0.0 l/m 8.2 km/h S-SW 209 5 min 0 min 556 W/m 14.5 km/h
25.05.2019 13:45 17.8 C 75 % 1015.2 hPa 0.0 l/m 8.1 km/h SW 219 0 min 0 min 446 W/m 12.9 km/h
25.05.2019 13:40 17.7 C 74 % 1015.2 hPa 0.0 l/m 9.9 km/h SW 232 0 min 0 min 427 W/m 16.1 km/h
25.05.2019 13:35 17.8 C 75 % 1015.2 hPa 0.0 l/m 8.2 km/h SW 221 0 min 0 min 463 W/m 17.7 km/h
25.05.2019 13:30 17.6 C 76 % 1015.2 hPa 0.0 l/m 8.2 km/h S-SW 207 0 min 0 min 418 W/m 17.7 km/h
25.05.2019 13:25 17.5 C 78 % 1015.2 hPa 0.0 l/m 9.9 km/h W-SW 240 0 min 0 min 383 W/m 17.7 km/h
25.05.2019 13:20 17.5 C 79 % 1015.2 hPa 0.0 l/m 7.1 km/h W-SW 254 0 min 0 min 355 W/m 14.5 km/h
25.05.2019 13:15 17.4 C 79 % 1015.2 hPa 0.0 l/m 8.0 km/h S-SW 209 0 min 0 min 323 W/m 14.5 km/h
25.05.2019 13:10 17.4 C 79 % 1015.2 hPa 0.0 l/m 6.3 km/h SW 228 0 min 0 min 291 W/m 14.5 km/h
25.05.2019 13:05 17.5 C 79 % 1015.2 hPa 0.0 l/m 5.9 km/h SW 221 0 min 0 min 282 W/m 14.5 km/h
25.05.2019 13:00 17.7 C 76 % 1015.2 hPa 0.0 l/m 7.3 km/h SW 221 0 min 0 min 256 W/m 16.1 km/h
25.05.2019 12:55 17.9 C 73 % 1015.1 hPa 0.0 l/m 7.8 km/h S-SW 200 0 min 0 min 223 W/m 16.1 km/h
25.05.2019 12:50 18.1 C 72 % 1015.1 hPa 0.0 l/m 7.1 km/h SW 236 0 min 0 min 203 W/m 17.7 km/h
25.05.2019 12:45 18.1 C 70 % 1015.1 hPa 0.0 l/m 9.0 km/h SW 222 0 min 0 min 197 W/m 17.7 km/h
25.05.2019 12:40 18.3 C 68 % 1015.2 hPa 0.0 l/m 10.4 km/h SW 231 0 min 0 min 203 W/m 19.3 km/h
25.05.2019 12:35 18.5 C 68 % 1015.2 hPa 0.0 l/m 9.0 km/h S-SW 207 0 min 0 min 223 W/m 19.3 km/h
25.05.2019 12:30 18.7 C 68 % 1015.2 hPa 0.0 l/m 10.4 km/h S-SW 207 0 min 0 min 257 W/m 19.3 km/h
25.05.2019 12:25 19.1 C 67 % 1015.2 hPa 0.0 l/m 9.8 km/h SW 236 0 min 0 min 302 W/m 17.7 km/h
25.05.2019 12:20 19.4 C 65 % 1015.2 hPa 0.0 l/m 6.9 km/h S-SW 194 0 min 0 min 338 W/m 16.1 km/h
25.05.2019 12:15 19.4 C 69 % 1015.3 hPa 0.0 l/m 3.7 km/h N 9 0 min 0 min 396 W/m 8.0 km/h
25.05.2019 12:10 19.6 C 59 % 1015.3 hPa 0.0 l/m 5.9 km/h N 9 5 min 0 min 469 W/m 11.3 km/h
25.05.2019 12:05 19.8 C 63 % 1015.2 hPa 0.0 l/m 3.2 km/h NO 35 5 min 0 min 597 W/m 6.4 km/h
25.05.2019 12:00 18.9 C 64 % 1015.2 hPa 0.0 l/m 1.5 km/h NO 35 5 min 0 min 602 W/m 4.8 km/h
25.05.2019 11:55 19.1 C 64 % 1015.2 hPa 0.0 l/m 1.7 km/h NO 35 5 min 0 min 525 W/m 6.4 km/h
25.05.2019 11:50 19.2 C 63 % 1015.2 hPa 0.0 l/m 5.1 km/h NO 35 5 min 0 min 554 W/m 9.7 km/h
25.05.2019 11:45 19.3 C 60 % 1015.2 hPa 0.0 l/m 3.3 km/h NO 35 5 min 0 min 646 W/m 8.0 km/h
25.05.2019 11:40 19.2 C 62 % 1015.2 hPa 0.0 l/m 2.4 km/h NO 35 5 min 0 min 646 W/m 6.4 km/h
25.05.2019 11:35 19.7 C 61 % 1015.2 hPa 0.0 l/m 4.4 km/h NO 35 5 min 0 min 614 W/m 8.0 km/h
25.05.2019 11:30 19.7 C 62 % 1015.2 hPa 0.0 l/m 5.6 km/h NO 35 5 min 0 min 641 W/m 9.7 km/h
25.05.2019 11:25 19.5 C 66 % 1015.2 hPa 0.0 l/m 4.1 km/h NO 35 5 min 0 min 594 W/m 8.0 km/h
25.05.2019 11:20 19.1 C 64 % 1015.3 hPa 0.0 l/m 5.3 km/h NO 36 5 min 0 min 659 W/m 8.0 km/h
25.05.2019 11:15 19.2 C 64 % 1015.2 hPa 0.0 l/m 4.4 km/h NO 36 5 min 0 min 686 W/m 8.0 km/h
25.05.2019 11:10 19.3 C 68 % 1015.2 hPa 0.0 l/m 1.6 km/h NO 35 5 min 0 min 734 W/m 6.4 km/h
25.05.2019 11:05 18.8 C 64 % 1015.3 hPa 0.0 l/m 4.0 km/h NO 35 5 min 0 min 603 W/m 8.0 km/h
25.05.2019 11:00 19.0 C 67 % 1015.2 hPa 0.0 l/m 4.8 km/h NO 35 5 min 0 min 780 W/m 8.0 km/h
25.05.2019 10:55 19.3 C 70 % 1015.2 hPa 0.0 l/m 2.4 km/h NO 36 5 min 0 min 697 W/m 6.4 km/h
25.05.2019 10:50 18.5 C 73 % 1015.2 hPa 0.0 l/m 0.7 km/h NO 36 5 min 0 min 674 W/m 4.8 km/h
25.05.2019 10:45 17.9 C 71 % 1015.2 hPa 0.0 l/m 3.3 km/h NO 36 5 min 0 min 664 W/m 6.4 km/h
25.05.2019 10:40 18.0 C 72 % 1015.2 hPa 0.0 l/m 3.6 km/h NO 35 5 min 0 min 904 W/m 8.0 km/h
25.05.2019 10:35 17.9 C 76 % 1015.3 hPa 0.0 l/m 1.6 km/h NO 35 5 min 0 min 672 W/m 4.8 km/h
25.05.2019 10:30 17.4 C 80 % 1015.2 hPa 0.0 l/m 1.7 km/h NO 35 5 min 0 min 738 W/m 4.8 km/h
25.05.2019 10:25 16.6 C 78 % 1015.2 hPa 0.0 l/m 0.8 km/h NO 35 5 min 0 min 403 W/m 3.2 km/h
25.05.2019 10:20 16.9 C 80 % 1015.2 hPa 0.0 l/m 3.6 km/h NO 35 5 min 0 min 393 W/m 9.7 km/h
25.05.2019 10:15 16.8 C 78 % 1015.2 hPa 0.0 l/m 3.2 km/h NO 35 0 min 0 min 354 W/m 6.4 km/h
25.05.2019 10:10 17.0 C 79 % 1015.2 hPa 0.0 l/m 1.7 km/h NO 35 5 min 0 min 404 W/m 6.4 km/h
25.05.2019 10:05 17.2 C 79 % 1015.1 hPa 0.0 l/m 3.6 km/h NO 35 5 min 0 min 684 W/m 9.7 km/h
25.05.2019 10:00 17.7 C 82 % 1015.2 hPa 0.0 l/m 3.0 km/h NO 36 5 min 0 min 630 W/m 6.4 km/h
25.05.2019 09:55 17.4 C 80 % 1015.2 hPa 0.0 l/m 1.9 km/h NO 35 5 min 0 min 642 W/m 4.8 km/h
25.05.2019 09:50 16.8 C 83 % 1015.2 hPa 0.0 l/m 2.1 km/h NO 35 5 min 0 min 611 W/m 6.4 km/h
25.05.2019 09:45 15.8 C 80 % 1015.1 hPa 0.0 l/m 2.7 km/h NO 35 5 min 0 min 370 W/m 4.8 km/h
25.05.2019 09:40 15.7 C 82 % 1015.1 hPa 0.0 l/m 3.6 km/h NO 35 0 min 0 min 307 W/m 6.4 km/h
25.05.2019 09:35 15.7 C 81 % 1015.1 hPa 0.0 l/m 3.2 km/h NO 36 5 min 0 min 396 W/m 6.4 km/h
25.05.2019 09:30 15.7 C 83 % 1015.1 hPa 0.0 l/m 2.2 km/h NO 35 5 min 0 min 520 W/m 4.8 km/h
25.05.2019 09:25 15.3 C 87 % 1015.0 hPa 0.0 l/m 1.8 km/h NO 35 5 min 0 min 377 W/m 4.8 km/h
25.05.2019 09:20 14.8 C 86 % 1015.1 hPa 0.0 l/m 1.9 km/h NO 35 5 min 0 min 353 W/m 6.4 km/h
25.05.2019 09:15 14.9 C 85 % 1015.0 hPa 0.0 l/m 2.1 km/h NO 35 5 min 0 min 346 W/m 4.8 km/h
25.05.2019 09:10 14.4 C 86 % 1015.0 hPa 0.0 l/m 1.6 km/h NO 36 5 min 0 min 420 W/m 3.2 km/h
25.05.2019 09:05 14.3 C 88 % 1015.0 hPa 0.0 l/m 0.7 km/h NO 36 5 min 0 min 347 W/m 3.2 km/h
25.05.2019 09:00 14.3 C 88 % 1015.0 hPa 0.0 l/m 1.7 km/h NO 35 5 min 0 min 318 W/m 4.8 km/h
25.05.2019 08:55 14.1 C 91 % 1014.9 hPa 0.0 l/m 0.0 km/h NO 35 5 min 0 min 344 W/m 1.6 km/h
25.05.2019 08:50 13.4 C 91 % 1014.9 hPa 0.0 l/m 0.0 km/h NO 35 0 min 0 min 258 W/m 0.0 km/h
25.05.2019 08:45 13.2 C 92 % 1014.9 hPa 0.0 l/m 0.4 km/h NO 35 0 min 0 min 188 W/m 3.2 km/h
25.05.2019 08:40 13.1 C 92 % 1015.0 hPa 0.0 l/m 1.2 km/h NO 35 0 min 0 min 167 W/m 3.2 km/h
25.05.2019 08:35 12.8 C 91 % 1014.9 hPa 0.0 l/m 2.5 km/h NO 35 0 min 0 min 168 W/m 4.8 km/h
25.05.2019 08:30 12.7 C 92 % 1014.9 hPa 0.0 l/m 2.2 km/h NO 35 0 min 0 min 152 W/m 4.8 km/h
25.05.2019 08:25 12.7 C 92 % 1014.8 hPa 0.0 l/m 1.6 km/h NO 35 0 min 0 min 141 W/m 4.8 km/h
25.05.2019 08:20 12.6 C 92 % 1014.8 hPa 0.0 l/m 2.1 km/h NO 35 0 min 0 min 134 W/m 4.8 km/h
25.05.2019 08:15 12.4 C 92 % 1014.8 hPa 0.0 l/m 0.1 km/h NO 35 0 min 0 min 119 W/m 1.6 km/h
25.05.2019 08:10 12.4 C 91 % 1014.8 hPa 0.0 l/m 0.0 km/h NO 35 0 min 0 min 105 W/m 0.0 km/h
25.05.2019 08:05 12.3 C 91 % 1014.7 hPa 0.0 l/m 0.4 km/h NO 35 0 min 0 min 91 W/m 1.6 km/h
25.05.2019 08:00 12.3 C 91 % 1014.7 hPa 0.0 l/m 1.3 km/h NO 35 0 min 0 min 76 W/m 4.8 km/h
_ Min-Zeit 06:25 15:15 08:00 - 08:10 - - - - - 08:10
Minimum _ 10.1 C 58 % 1014.7 hPa - 0.0 km/h - - - - - 0.0 km/h
_ Max-Zeit 14:45 07:20 00:25 16:00 15:35 - - 08:55 15:55 14:45 15:20
Maximum _ 20.7 C 98 % 1017.6 hPa 0.6 l/m 14.2 km/h
N
- - 5 min 5 min 1043 W/m 35.4 km/h
NW
Durchschnitt _ 14.1 C 88 % 1016.1 hPa #4.0 l/m 2.7 km/h SW - #40 min. #0 min. 90 W/m 6.1 km/h